Terminal Aerodrome Forecast
Issued by NWS

Home | Current Version | Previous Version | Text Only | Print | Product List | Glossary On
Versions: 1 2 3 4 5 6 7 8 9 10 11 12 13 14 15 16
000
FTUS42 KTAE 042323
TAFDHN
TAF
KDHN 042323Z 0500/0524 21005KT P6SM SCT070
     FM051800 22010KT 6SM -TSRA BKN040CB
     FM052000 21010KT P6SM SCT040 BKN250=

USA.gov is the U.S. government's official web portal to all federal, state and local government web resources and services.